Time;durP1;ratioP1;P1;durP2;ratioP2;P2;SDS_P1;SDS_P2;PMS_P1;PMS_P2;Temp;Humidity;BMP_temperature;BMP_pressure;BME280_temperature;BME280_humidity;BME280_pressure;Samples;Min_cycle;Max_cycle;Signal;HPM_P1;HPM_P2
2022/12/13 00:01:09;;;;;;;36.70;14.35;;;-3.70;99.90;;;;;;4195424;28;20216;-77
2022/12/13 00:03:11;;;;;;;33.08;13.32;;;-3.80;99.90;;;;;;4194838;28;20852;-78
2022/12/13 00:05:13;;;;;;;36.42;14.40;;;-3.80;99.90;;;;;;4195550;28;20350;-78
2022/12/13 00:07:17;;;;;;;41.95;14.63;;;-3.10;99.90;;;;;;4196001;28;20211;-78
2022/12/13 00:09:19;;;;;;;42.55;15.18;;;-3.90;99.90;;;;;;4189058;28;21034;-77
2022/12/13 00:11:21;;;;;;;41.67;14.85;;;-3.00;99.90;;;;;;4194250;28;20297;-77
2022/12/13 00:13:23;;;;;;;41.33;15.68;;;-3.90;99.90;;;;;;4197175;28;20239;-78
2022/12/13 00:15:25;;;;;;;34.35;13.52;;;-3.90;99.90;;;;;;4195719;28;20229;-78
2022/12/13 00:17:27;;;;;;;36.55;14.90;;;-3.90;99.90;;;;;;4193203;28;20194;-78
2022/12/13 00:19:29;;;;;;;40.28;15.35;;;-3.80;99.90;;;;;;4195344;28;20266;-78
2022/12/13 00:21:33;;;;;;;35.35;14.23;;;-4.00;99.90;;;;;;4184384;28;20628;-77
2022/12/13 00:23:36;;;;;;;38.13;14.60;;;-4.00;99.90;;;;;;4193576;28;20212;-77
2022/12/13 00:25:38;;;;;;;34.67;13.52;;;-4.10;99.90;;;;;;4192853;28;20225;-77
2022/12/13 00:27:40;;;;;;;37.33;14.55;;;-4.10;99.90;;;;;;4197638;28;20258;-77
2022/12/13 00:29:42;;;;;;;34.83;14.10;;;-4.10;99.90;;;;;;4187965;28;20255;-77
2022/12/13 00:31:44;;;;;;;32.80;12.93;;;-4.10;99.90;;;;;;4192318;28;20301;-77
2022/12/13 00:33:47;;;;;;;37.50;14.57;;;-4.20;99.90;;;;;;4188788;28;20722;-78
2022/12/13 00:35:49;;;;;;;36.28;14.25;;;-4.20;99.90;;;;;;4189908;28;20236;-77
2022/12/13 00:37:51;;;;;;;38.78;15.48;;;-4.40;99.90;;;;;;4198298;28;20254;-77
2022/12/13 00:39:54;;;;;;;37.85;13.68;;;-4.20;99.90;;;;;;4193975;28;20198;-77
2022/12/13 00:41:56;;;;;;;33.25;13.07;;;-4.30;99.90;;;;;;4192660;28;20200;-77
2022/12/13 00:43:59;;;;;;;40.63;14.70;;;-4.30;99.90;;;;;;4191837;28;20242;-77
2022/12/13 00:46:01;;;;;;;41.08;14.38;;;-4.20;99.90;;;;;;4194989;28;20229;-77
2022/12/13 00:48:03;;;;;;;38.42;13.50;;;-4.30;99.90;;;;;;4188989;28;20211;-77
2022/12/13 00:50:06;;;;;;;42.03;14.52;;;-4.30;99.90;;;;;;4192099;28;20249;-77
2022/12/13 00:52:08;;;;;;;38.63;14.32;;;-4.40;99.90;;;;;;4196445;28;20214;-77
2022/12/13 00:54:10;;;;;;;39.10;14.75;;;-4.40;99.90;;;;;;4185624;28;20235;-77
2022/12/13 00:56:15;;;;;;;36.97;14.77;;;-4.40;99.90;;;;;;4192550;28;20232;-77
2022/12/13 00:58:17;;;;;;;37.92;13.82;;;-4.40;99.90;;;;;;4189961;28;20203;-77
2022/12/13 01:00:20;;;;;;;38.20;13.73;;;-4.40;99.90;;;;;;4181297;28;20633;-77
2022/12/13 01:02:22;;;;;;;40.03;14.18;;;-4.40;99.90;;;;;;4193674;28;20202;-77
2022/12/13 01:04:24;;;;;;;37.10;14.90;;;-4.50;99.90;;;;;;4188159;28;20253;-77
2022/12/13 01:06:29;;;;;;;33.80;13.25;;;-4.50;99.90;;;;;;4192326;28;20243;-76
2022/12/13 01:08:31;;;;;;;40.28;13.93;;;-4.60;99.90;;;;;;4192210;28;20701;-77
2022/12/13 01:10:33;;;;;;;36.92;13.82;;;-4.60;99.90;;;;;;4188757;28;20217;-77
2022/12/13 01:12:36;;;;;;;39.60;13.98;;;-3.40;99.90;;;;;;4196555;28;20215;-78
2022/12/13 01:14:40;;;;;;;34.40;12.93;;;-4.70;99.90;;;;;;4193380;28;20214;-77
2022/12/13 01:16:42;;;;;;;40.50;14.75;;;-4.70;99.90;;;;;;4192901;28;20232;-78
2022/12/13 01:18:45;;;;;;;39.47;13.02;;;-4.80;99.90;;;;;;4189696;28;20200;-78
2022/12/13 01:20:59;;;;;;;34.40;13.18;;;-4.80;99.90;;;;;;4194800;28;20205;-77
2022/12/13 01:23:01;;;;;;;43.22;14.52;;;-4.80;99.90;;;;;;4189000;28;20203;-77
2022/12/13 01:25:03;;;;;;;31.92;12.93;;;-4.30;99.90;;;;;;4184637;28;20671;-77
2022/12/13 01:27:05;;;;;;;34.25;13.32;;;-4.90;99.90;;;;;;4208834;28;20288;-76
2022/12/13 01:29:10;;;;;;;41.95;14.57;;;-4.90;99.90;;;;;;4194519;28;20670;-77
2022/12/13 01:31:14;;;;;;;35.22;13.07;;;-4.90;99.90;;;;;;4188899;28;20225;-78
2022/12/13 01:33:16;;;;;;;38.85;13.88;;;-4.90;99.90;;;;;;4194074;28;20207;-77
2022/12/13 01:35:18;;;;;;;42.72;14.25;;;-5.00;99.90;;;;;;4184044;28;20265;-77
2022/12/13 01:37:20;;;;;;;35.38;13.32;;;-5.00;99.90;;;;;;4196924;28;20300;-78
2022/12/13 01:39:22;;;;;;;36.72;13.35;;;-5.00;99.90;;;;;;4191994;28;20209;-78
2022/12/13 01:41:26;;;;;;;35.75;13.88;;;-5.00;99.90;;;;;;4195465;28;20210;-77
2022/12/13 01:43:32;;;;;;;33.58;13.10;;;-5.00;99.90;;;;;;4190916;28;20301;-77
2022/12/13 01:45:35;;;;;;;39.20;13.48;;;-5.00;99.90;;;;;;4191656;28;20292;-77
2022/12/13 01:47:42;;;;;;;32.30;12.77;;;-5.10;99.90;;;;;;4183341;28;20257;-77
2022/12/13 01:49:44;;;;;;;37.60;14.00;;;-5.10;99.90;;;;;;4187944;28;20238;-77
2022/12/13 01:51:50;;;;;;;32.90;13.60;;;-5.10;99.90;;;;;;4189401;28;20246;-78
2022/12/13 01:53:54;;;;;;;33.53;12.43;;;-5.20;99.90;;;;;;4192927;28;20239;-76
2022/12/13 01:56:01;;;;;;;36.80;12.73;;;-4.70;99.90;;;;;;4200048;28;20259;-77
2022/12/13 01:58:04;;;;;;;35.95;13.85;;;-5.20;99.90;;;;;;4193927;28;20620;-77
2022/12/13 02:00:09;;;;;;;35.35;12.43;;;-5.20;99.90;;;;;;4193464;28;20233;-77
2022/12/13 02:02:15;;;;;;;38.30;13.30;;;-5.30;99.90;;;;;;4194844;28;20240;-77
2022/12/13 02:04:23;;;;;;;36.38;13.32;;;-5.30;99.90;;;;;;4186300;28;20222;-77
2022/12/13 02:06:33;;;;;;;39.15;12.98;;;-5.40;99.90;;;;;;4197431;28;20692;-79
2022/12/13 02:08:37;;;;;;;41.53;13.35;;;-5.40;99.90;;;;;;4191103;28;20217;-80
2022/12/13 02:10:39;;;;;;;46.08;14.10;;;-4.50;99.90;;;;;;4192245;28;20317;-78
2022/12/13 02:12:42;;;;;;;34.45;12.90;;;-5.40;99.90;;;;;;4184271;28;20306;-77
2022/12/13 02:14:43;;;;;;;30.50;12.40;;;-5.40;99.90;;;;;;4197413;28;20301;-76
2022/12/13 02:16:56;;;;;;;37.90;12.68;;;-5.50;99.90;;;;;;4196774;28;20315;-77
2022/12/13 02:19:34;;;;;;;43.78;13.73;;;-5.20;99.90;;;;;;4192941;28;20194;-77
2022/12/13 02:21:47;;;;;;;33.22;13.38;;;-5.50;99.90;;;;;;4194481;28;21064;-77
2022/12/13 02:24:18;;;;;;;37.25;12.32;;;-5.60;99.90;;;;;;4192871;28;20201;-75
2022/12/13 02:26:43;;;;;;;35.85;13.48;;;-5.50;99.90;;;;;;4192990;28;20262;-76
2022/12/13 02:29:01;;;;;;;32.70;13.52;;;-5.60;99.90;;;;;;4195445;28;20711;-77
2022/12/13 02:31:10;;;;;;;37.60;12.98;;;-5.60;99.90;;;;;;4198014;28;20222;-77
2022/12/13 02:33:35;;;;;;;35.05;13.02;;;-5.60;99.90;;;;;;4198255;28;20226;-77
2022/12/13 02:35:43;;;;;;;42.13;13.95;;;-5.60;99.90;;;;;;4199429;28;20811;-77
2022/12/13 02:37:53;;;;;;;39.40;12.88;;;-5.70;99.90;;;;;;4198829;28;20296;-77
2022/12/13 02:40:00;;;;;;;32.25;12.60;;;-5.70;99.90;;;;;;4195251;28;20234;-77
2022/12/13 02:42:07;;;;;;;41.65;13.45;;;-5.70;99.90;;;;;;4191847;28;20298;-77
2022/12/13 02:44:15;;;;;;;30.52;12.30;;;-5.80;99.90;;;;;;4199858;28;20213;-77
2022/12/13 02:46:21;;;;;;;35.72;12.32;;;-5.80;99.90;;;;;;4195144;28;20222;-76
2022/12/13 02:48:26;;;;;;;36.38;12.55;;;-5.80;99.90;;;;;;4186219;28;20206;-76
2022/12/13 02:50:30;;;;;;;37.53;12.07;;;-5.80;99.90;;;;;;4198557;28;20647;-77
2022/12/13 02:52:33;;;;;;;31.52;12.02;;;-5.90;99.90;;;;;;4202746;28;20312;-76
2022/12/13 02:54:37;;;;;;;33.67;12.65;;;-5.90;99.90;;;;;;4195380;28;20637;-76
2022/12/13 02:56:38;;;;;;;33.40;12.65;;;-5.90;99.90;;;;;;4194578;28;20742;-77
2022/12/13 02:58:45;;;;;;;39.85;13.90;;;-5.90;99.90;;;;;;4189253;28;20206;-77
2022/12/13 03:00:55;;;;;;;35.30;11.98;;;-5.90;99.90;;;;;;4203447;28;20295;-79
2022/12/13 03:03:17;;;;;;;33.22;12.65;;;-5.90;99.90;;;;;;4192066;28;20213;-77
2022/12/13 03:08:00;;;;;;;34.25;11.90;;;-5.90;99.90;;;;;;4195195;28;20198;-76
2022/12/13 03:10:07;;;;;;;35.55;12.77;;;-6.00;99.90;;;;;;4194267;28;20281;-76
2022/12/13 03:14:45;;;;;;;37.30;12.27;;;-6.00;99.90;;;;;;4186315;28;20895;-78
2022/12/13 03:16:51;;;;;;;34.47;12.85;;;-6.00;99.90;;;;;;4196508;28;20228;-76
2022/12/13 03:18:58;;;;;;;37.20;13.57;;;-6.00;99.90;;;;;;4187191;28;20203;-77
2022/12/13 03:21:03;;;;;;;34.80;13.45;;;-6.00;99.90;;;;;;4194451;28;20202;-76
2022/12/13 03:23:05;;;;;;;32.17;11.65;;;-6.00;99.90;;;;;;4191782;28;20992;-77
2022/12/13 03:25:07;;;;;;;32.22;12.15;;;-6.10;99.90;;;;;;4190474;28;20210;-78
2022/12/13 03:27:09;;;;;;;29.42;11.95;;;-6.10;99.90;;;;;;4198409;28;20261;-78
2022/12/13 03:29:11;;;;;;;30.52;11.68;;;-6.10;99.90;;;;;;4200370;28;20255;-78
2022/12/13 03:31:13;;;;;;;32.38;11.35;;;-6.10;99.90;;;;;;4196666;28;20237;-77
2022/12/13 03:33:15;;;;;;;32.55;12.18;;;-6.10;99.90;;;;;;4196256;28;20254;-77
2022/12/13 03:35:19;;;;;;;32.53;13.02;;;-6.10;99.90;;;;;;4196675;28;20231;-77
2022/12/13 03:37:21;;;;;;;37.17;13.43;;;-6.20;99.90;;;;;;4191345;28;20298;-76
2022/12/13 03:39:23;;;;;;;35.60;13.02;;;-6.10;99.90;;;;;;4199963;28;20219;-76
2022/12/13 03:41:30;;;;;;;30.80;12.13;;;-6.20;99.90;;;;;;4200753;28;20236;-77
2022/12/13 03:43:32;;;;;;;27.20;10.75;;;-5.40;99.90;;;;;;4193250;28;20203;-77
2022/12/13 03:45:34;;;;;;;29.33;11.50;;;-6.30;99.90;;;;;;4198743;28;20222;-77
2022/12/13 03:47:36;;;;;;;35.30;11.52;;;-6.30;99.90;;;;;;4188191;28;20235;-76
2022/12/13 03:49:38;;;;;;;28.40;12.35;;;-6.30;99.90;;;;;;4189454;28;20285;-76
2022/12/13 03:51:41;;;;;;;29.70;11.82;;;-6.30;99.90;;;;;;4196405;28;20763;-76
2022/12/13 03:53:43;;;;;;;32.45;11.70;;;-6.40;99.90;;;;;;4206971;28;20663;-76
2022/12/13 03:55:46;;;;;;;34.30;12.27;;;-6.40;99.90;;;;;;4189797;28;20292;-77
2022/12/13 03:57:48;;;;;;;30.95;11.07;;;-6.40;99.90;;;;;;4196603;28;20551;-76
2022/12/13 03:59:50;;;;;;;31.08;11.20;;;-6.50;99.90;;;;;;4193407;28;20230;-76
2022/12/13 04:01:51;;;;;;;37.50;11.82;;;-6.50;99.90;;;;;;4187672;28;20205;-77
2022/12/13 04:03:54;;;;;;;32.45;12.23;;;-6.50;99.90;;;;;;4195406;28;20274;-77
2022/12/13 04:05:56;;;;;;;35.70;12.73;;;-6.40;99.90;;;;;;4196405;28;20327;-76
2022/12/13 04:07:59;;;;;;;33.88;12.75;;;-6.50;99.90;;;;;;4192832;28;20240;-76
2022/12/13 04:10:01;;;;;;;34.00;12.70;;;-6.50;99.90;;;;;;4198876;28;20202;-77
2022/12/13 04:14:23;;;;;;;32.25;11.60;;;-6.60;99.90;;;;;;4191732;28;20340;-77
2022/12/13 04:16:25;;;;;;;34.65;12.35;;;-6.60;99.90;;;;;;4192415;28;20753;-76
2022/12/13 04:18:27;;;;;;;30.77;11.23;;;-6.60;99.90;;;;;;4184495;28;20233;-76
2022/12/13 04:20:29;;;;;;;35.95;11.85;;;-6.70;99.90;;;;;;4192395;28;20297;-76
2022/12/13 04:22:31;;;;;;;34.83;11.75;;;-6.70;99.90;;;;;;4196129;28;20202;-76
2022/12/13 04:24:34;;;;;;;33.05;12.07;;;-6.70;99.90;;;;;;4195574;28;20236;-77
2022/12/13 04:26:36;;;;;;;31.48;11.73;;;-6.70;99.90;;;;;;4187520;28;20718;-76
2022/12/13 04:28:38;;;;;;;32.85;11.80;;;-6.70;99.90;;;;;;4195005;28;20217;-77
2022/12/13 04:30:40;;;;;;;31.00;11.43;;;-6.70;99.90;;;;;;4192273;28;20240;-77
2022/12/13 04:32:42;;;;;;;38.63;14.52;;;-6.70;99.90;;;;;;4198150;28;20277;-77
2022/12/13 04:34:44;;;;;;;44.00;14.27;;;-6.70;99.90;;;;;;4192110;28;20218;-77
2022/12/13 04:36:45;;;;;;;38.00;13.70;;;-6.70;99.90;;;;;;4193722;28;20225;-76
2022/12/13 04:38:47;;;;;;;28.77;12.50;;;-6.70;99.90;;;;;;4194683;28;20237;-76
2022/12/13 04:40:51;;;;;;;31.75;11.23;;;-6.70;99.90;;;;;;4193798;28;20198;-76
2022/12/13 04:42:54;;;;;;;29.48;10.85;;;-6.80;99.90;;;;;;4189674;28;20248;-77
2022/12/13 04:44:55;;;;;;;33.75;11.13;;;-6.80;99.90;;;;;;4184590;28;20624;-76
2022/12/13 04:46:57;;;;;;;29.08;11.63;;;-6.80;99.90;;;;;;4197375;28;20270;-77
2022/12/13 04:49:00;;;;;;;31.83;11.23;;;-6.80;99.90;;;;;;4192231;28;20236;-77
2022/12/13 04:51:02;;;;;;;28.40;11.25;;;-6.90;99.90;;;;;;4190306;28;20679;-76
2022/12/13 04:53:04;;;;;;;28.20;11.63;;;-6.90;99.90;;;;;;4190140;28;20276;-76
2022/12/13 04:55:07;;;;;;;27.77;10.98;;;-6.90;99.90;;;;;;4190473;28;20249;-77
2022/12/13 04:57:11;;;;;;;29.60;10.95;;;-6.90;99.90;;;;;;4192535;28;20561;-76
2022/12/13 04:59:13;;;;;;;31.10;10.90;;;-6.90;99.90;;;;;;4186360;28;20259;-77
2022/12/13 05:01:15;;;;;;;30.58;11.40;;;-6.90;99.90;;;;;;4194516;28;20658;-79
2022/12/13 05:03:17;;;;;;;26.65;10.85;;;-6.90;99.90;;;;;;4190813;28;20209;-79
2022/12/13 05:05:19;;;;;;;28.17;10.85;;;-7.00;99.90;;;;;;4186206;28;20257;-79
2022/12/13 05:07:21;;;;;;;35.22;12.80;;;-7.00;99.90;;;;;;4186774;28;20209;-77
2022/12/13 05:09:23;;;;;;;41.63;14.18;;;-6.90;99.90;;;;;;4188486;28;20241;-77
2022/12/13 05:11:25;;;;;;;35.10;13.43;;;-6.90;99.90;;;;;;4188383;28;20225;-76
2022/12/13 05:13:29;;;;;;;36.17;12.80;;;-6.90;99.90;;;;;;4182724;28;20230;-77
2022/12/13 05:15:31;;;;;;;28.10;11.00;;;-6.90;99.90;;;;;;4185203;28;21533;-76
2022/12/13 05:17:33;;;;;;;35.47;12.45;;;-7.00;99.90;;;;;;4190956;28;20217;-77
2022/12/13 05:19:35;;;;;;;32.20;11.77;;;-7.00;99.90;;;;;;4187681;28;20210;-76
2022/12/13 05:21:36;;;;;;;31.75;11.40;;;-7.00;99.90;;;;;;4190233;28;20255;-76
2022/12/13 05:23:39;;;;;;;26.63;10.80;;;-7.10;99.90;;;;;;4192850;28;20210;-76
2022/12/13 05:25:41;;;;;;;30.52;11.00;;;-7.00;99.90;;;;;;4198565;28;20265;-77
2022/12/13 05:27:43;;;;;;;32.85;11.75;;;-7.10;99.90;;;;;;4192077;28;20217;-76
2022/12/13 05:29:46;;;;;;;30.20;11.23;;;-7.10;99.90;;;;;;4189624;28;20301;-77
2022/12/13 05:31:48;;;;;;;31.58;11.63;;;-7.00;99.90;;;;;;4190709;28;20482;-77
2022/12/13 05:33:50;;;;;;;28.42;11.18;;;-7.00;99.90;;;;;;4196684;28;20197;-77
2022/12/13 05:35:52;;;;;;;34.72;12.15;;;-7.00;99.90;;;;;;4193788;28;20230;-77
2022/12/13 05:37:54;;;;;;;28.88;11.13;;;-7.00;99.90;;;;;;4201196;28;20208;-78
2022/12/13 05:39:56;;;;;;;34.35;11.05;;;-7.00;99.90;;;;;;4194459;28;20213;-76
2022/12/13 05:41:59;;;;;;;31.52;10.82;;;-7.00;99.90;;;;;;4194545;28;20197;-77
2022/12/13 05:44:01;;;;;;;31.70;10.70;;;-7.00;99.90;;;;;;4192348;28;20215;-76
2022/12/13 05:46:05;;;;;;;31.50;11.32;;;-7.10;99.90;;;;;;4193501;28;20213;-76
2022/12/13 05:48:07;;;;;;;33.25;10.80;;;-7.10;99.90;;;;;;4192510;28;20281;-76
2022/12/13 05:50:10;;;;;;;36.45;12.18;;;-7.10;99.90;;;;;;4194060;28;20740;-76
2022/12/13 05:52:16;;;;;;;30.42;11.85;;;-7.10;99.90;;;;;;4189845;28;20247;-76
2022/12/13 05:54:18;;;;;;;28.20;11.13;;;-7.20;99.90;;;;;;4192350;28;20226;-77
2022/12/13 05:56:20;;;;;;;28.02;10.75;;;-7.20;99.90;;;;;;4190599;28;20695;-76
2022/12/13 05:58:22;;;;;;;29.58;11.57;;;-7.20;99.90;;;;;;4191603;28;20209;-76
2022/12/13 06:00:24;;;;;;;30.33;10.73;;;-7.20;99.90;;;;;;4192335;28;20595;-78
2022/12/13 06:02:28;;;;;;;28.05;10.52;;;-7.20;99.90;;;;;;4193852;28;20222;-78
2022/12/13 06:04:30;;;;;;;33.47;12.90;;;-7.30;99.90;;;;;;4195532;28;20232;-79
2022/12/13 06:06:32;;;;;;;36.00;11.57;;;-7.30;99.90;;;;;;4199849;28;20253;-76
2022/12/13 06:08:34;;;;;;;30.10;10.75;;;-7.30;99.90;;;;;;4192777;28;20255;-77
2022/12/13 06:10:36;;;;;;;36.80;11.80;;;-7.30;99.90;;;;;;4187742;28;20202;-76
2022/12/13 06:12:38;;;;;;;27.90;10.40;;;-7.30;99.90;;;;;;4194286;28;20260;-76
2022/12/13 06:14:40;;;;;;;24.70;9.80;;;-7.40;99.90;;;;;;4193804;28;20236;-77
2022/12/13 06:16:42;;;;;;;31.95;10.18;;;-7.30;99.90;;;;;;4192216;28;20225;-77
2022/12/13 06:18:46;;;;;;;30.75;10.85;;;-7.40;99.90;;;;;;4196806;28;20202;-76
2022/12/13 06:20:57;;;;;;;26.75;10.63;;;-7.40;99.90;;;;;;4193229;28;20294;-76
2022/12/13 06:22:59;;;;;;;30.83;10.55;;;-7.40;99.90;;;;;;4198871;28;20212;-77
2022/12/13 06:25:01;;;;;;;29.95;10.13;;;-7.40;99.90;;;;;;4192189;28;20256;-77
2022/12/13 06:27:06;;;;;;;34.72;11.52;;;-7.50;99.90;;;;;;4197874;28;20207;-76
2022/12/13 06:29:09;;;;;;;33.75;11.00;;;-7.50;99.90;;;;;;4195706;28;20206;-76
2022/12/13 06:31:11;;;;;;;34.25;11.27;;;-7.50;99.90;;;;;;4186117;28;20210;-76
2022/12/13 06:33:13;;;;;;;29.33;10.88;;;-7.50;99.90;;;;;;4190367;28;20723;-75
2022/12/13 06:35:16;;;;;;;35.20;10.52;;;-7.50;99.90;;;;;;4189246;28;20276;-76
2022/12/13 06:37:18;;;;;;;27.08;9.82;;;-7.50;99.90;;;;;;4192109;28;20206;-76
2022/12/13 06:39:21;;;;;;;30.77;11.10;;;-7.50;99.90;;;;;;4194890;28;20199;-77
2022/12/13 06:41:23;;;;;;;28.00;10.95;;;-7.50;99.90;;;;;;4197235;28;20226;-76
2022/12/13 06:43:24;;;;;;;29.55;10.57;;;-7.50;99.90;;;;;;4191058;28;20198;-77
2022/12/13 06:45:26;;;;;;;26.45;10.88;;;-7.60;99.90;;;;;;4185830;28;20650;-77
2022/12/13 06:47:28;;;;;;;23.92;9.52;;;-7.60;99.90;;;;;;4194870;28;20214;-77
2022/12/13 06:49:30;;;;;;;23.85;10.18;;;-7.60;99.90;;;;;;4191848;28;20237;-76
2022/12/13 06:51:34;;;;;;;30.00;11.25;;;-7.60;99.90;;;;;;4196924;28;20229;-77
2022/12/13 06:53:38;;;;;;;28.85;10.63;;;-7.60;99.90;;;;;;4195463;28;20189;-76
2022/12/13 06:55:39;;;;;;;30.10;10.35;;;-7.60;99.90;;;;;;4194994;28;20275;-76
2022/12/13 06:57:42;;;;;;;30.00;11.38;;;-7.60;99.90;;;;;;4195445;28;20206;-76
2022/12/13 06:59:44;;;;;;;28.77;10.40;;;-7.60;99.90;;;;;;4192817;28;20202;-76
2022/12/13 07:01:46;;;;;;;28.25;10.00;;;-7.60;99.90;;;;;;4196972;28;20202;-76
2022/12/13 07:03:48;;;;;;;25.92;9.38;;;-7.60;99.90;;;;;;4191263;28;20206;-76
2022/12/13 07:05:50;;;;;;;22.23;9.40;;;-7.60;99.90;;;;;;4194089;28;20237;-76
2022/12/13 07:07:54;;;;;;;27.90;10.98;;;-7.60;99.90;;;;;;4192174;28;20226;-76
2022/12/13 07:09:56;;;;;;;26.70;10.25;;;-7.70;99.90;;;;;;4190649;28;20602;-76
2022/12/13 07:11:58;;;;;;;33.83;10.93;;;-7.70;99.90;;;;;;4200865;28;20234;-77
2022/12/13 07:14:00;;;;;;;26.42;9.90;;;-7.70;99.90;;;;;;4192315;28;20206;-76
2022/12/13 07:16:02;;;;;;;31.08;10.77;;;-7.70;99.90;;;;;;4197591;28;20599;-76
2022/12/13 07:18:04;;;;;;;32.40;10.80;;;-7.60;99.90;;;;;;4185340;28;20657;-76
2022/12/13 07:20:08;;;;;;;23.75;9.60;;;-7.60;99.90;;;;;;4198106;28;20741;-76
2022/12/13 07:22:10;;;;;;;28.38;9.68;;;-7.60;99.90;;;;;;4191263;28;20198;-76
2022/12/13 07:24:13;;;;;;;33.03;10.90;;;-7.60;99.90;;;;;;4186549;28;20207;-76
2022/12/13 07:26:15;;;;;;;29.17;10.70;;;-7.60;99.90;;;;;;4183842;28;20261;-76
2022/12/13 07:28:17;;;;;;;27.38;9.90;;;-7.60;99.90;;;;;;4184511;28;20252;-76
2022/12/13 07:30:19;;;;;;;32.78;9.93;;;-7.60;99.90;;;;;;4191953;28;20214;-76
2022/12/13 07:32:21;;;;;;;32.88;10.80;;;-7.50;99.90;;;;;;4184595;28;20759;-76
2022/12/13 07:34:23;;;;;;;29.02;10.90;;;-7.50;99.90;;;;;;4194602;28;20237;-76
2022/12/13 07:36:25;;;;;;;27.10;9.77;;;-7.60;99.90;;;;;;4188235;28;20236;-76
2022/12/13 07:38:27;;;;;;;26.25;9.85;;;-7.60;99.90;;;;;;4189420;28;20214;-76
2022/12/13 07:40:31;;;;;;;26.42;9.68;;;-7.60;99.90;;;;;;4193932;28;20218;-76
2022/12/13 07:42:33;;;;;;;24.98;9.45;;;-7.60;99.90;;;;;;4196310;28;20289;-77
2022/12/13 07:44:35;;;;;;;21.67;9.95;;;-7.60;99.90;;;;;;4198768;28;20623;-77
2022/12/13 07:46:36;;;;;;;27.10;9.63;;;-7.60;99.90;;;;;;4191897;28;20230;-77
2022/12/13 07:48:38;;;;;;;22.73;9.10;;;-7.50;99.90;;;;;;4201689;28;20209;-78
2022/12/13 07:50:40;;;;;;;29.20;10.35;;;-7.40;99.90;;;;;;4194968;28;20202;-77
2022/12/13 07:52:42;;;;;;;24.98;10.60;;;-7.50;99.90;;;;;;4193780;28;20226;-78
2022/12/13 07:54:44;;;;;;;26.30;10.00;;;-7.50;99.90;;;;;;4200012;28;20213;-77
2022/12/13 07:56:48;;;;;;;26.83;9.73;;;-7.50;99.90;;;;;;4191583;28;20233;-77
2022/12/13 07:58:50;;;;;;;27.27;10.07;;;-7.50;99.90;;;;;;4183973;28;20202;-76
2022/12/13 08:00:51;;;;;;;26.00;10.95;;;-7.50;99.90;;;;;;4194719;28;20252;-76
2022/12/13 08:02:54;;;;;;;25.77;9.57;;;-7.50;99.90;;;;;;4190428;28;20622;-76
2022/12/13 08:04:55;;;;;;;24.67;9.40;;;-7.50;99.90;;;;;;4202699;28;20205;-76
2022/12/13 08:06:57;;;;;;;31.40;11.23;;;-7.50;99.90;;;;;;4203745;28;20658;-77
2022/12/13 08:08:59;;;;;;;35.00;11.15;;;-7.50;99.90;;;;;;4196068;28;20206;-77
2022/12/13 08:11:02;;;;;;;28.25;10.65;;;-7.50;99.90;;;;;;4188877;28;20291;-77
2022/12/13 08:13:06;;;;;;;27.90;10.13;;;-7.40;99.90;;;;;;4190769;28;20259;-76
2022/12/13 08:15:11;;;;;;;29.90;9.68;;;-7.40;99.90;;;;;;4193940;28;20297;-77
2022/12/13 08:17:13;;;;;;;27.20;10.60;;;-7.40;99.90;;;;;;4195269;28;20203;-78
2022/12/13 08:19:15;;;;;;;29.65;10.02;;;-7.40;99.90;;;;;;4196622;28;20804;-77
2022/12/13 08:23:46;;;;;;;27.10;10.15;;;-7.40;99.90;;;;;;4193385;28;20287;-77
2022/12/13 08:25:57;;;;;;;28.48;10.57;;;-7.40;99.90;;;;;;4201550;28;20213;-77
2022/12/13 08:28:06;;;;;;;27.85;10.90;;;-7.40;99.90;;;;;;4196976;28;20304;-77
2022/12/13 08:36:51;;;;;;;32.40;10.63;;;-7.30;99.90;;;;;;3960063;29;20271;-77
2022/12/13 08:52:41;;;;;;;;;;;;;;;;;;;;;
2022/12/13 08:58:26;;;;;;;29.08;10.00;;;-7.00;99.90;;;;;;3944241;30;20303;-77
2022/12/13 09:00:36;;;;;;;31.00;10.55;;;-6.90;99.90;;;;;;4015064;28;20216;-77
2022/12/13 09:02:39;;;;;;;29.35;10.38;;;-6.90;99.90;;;;;;4137134;28;20311;-78
2022/12/13 09:04:43;;;;;;;29.33;10.35;;;-5.90;99.90;;;;;;4198149;28;20209;-78
2022/12/13 09:06:45;;;;;;;31.63;12.07;;;-5.70;99.90;;;;;;4193643;28;20222;-77
2022/12/13 09:08:47;;;;;;;29.92;11.75;;;-6.80;99.90;;;;;;4188824;28;20202;-77
2022/12/13 09:10:56;;;;;;;33.72;11.65;;;-6.70;99.90;;;;;;4191810;28;20237;-77
2022/12/13 09:12:58;;;;;;;33.40;11.32;;;-6.70;99.90;;;;;;4192305;28;20221;-78
2022/12/13 09:15:02;;;;;;;31.48;11.90;;;-6.70;99.90;;;;;;4197729;28;20248;-77
2022/12/13 09:17:04;;;;;;;32.33;12.02;;;-6.60;99.90;;;;;;4194035;28;20209;-77
2022/12/13 09:19:06;;;;;;;28.95;10.85;;;-6.60;99.90;;;;;;4191434;28;20578;-77
2022/12/13 09:21:10;;;;;;;37.22;12.43;;;-6.60;99.90;;;;;;4190665;28;20600;-77
2022/12/13 09:23:12;;;;;;;34.13;11.50;;;-6.60;99.90;;;;;;4193125;28;20197;-76
2022/12/13 09:25:14;;;;;;;29.95;11.30;;;-6.50;99.90;;;;;;4193264;28;20232;-77
2022/12/13 09:27:17;;;;;;;32.20;10.95;;;-6.50;99.90;;;;;;4191591;28;20586;-77
2022/12/13 09:29:19;;;;;;;27.77;10.80;;;-6.50;99.90;;;;;;4196302;28;20756;-77
2022/12/13 09:31:22;;;;;;;33.45;12.27;;;-6.50;99.90;;;;;;4192372;28;20198;-78
2022/12/13 09:33:24;;;;;;;34.33;12.18;;;-6.40;99.90;;;;;;4192171;28;20255;-77
2022/12/13 09:35:26;;;;;;;32.40;12.13;;;-6.40;99.90;;;;;;4196942;28;20321;-77
2022/12/13 09:37:29;;;;;;;33.08;12.10;;;-6.40;99.90;;;;;;4202808;28;20206;-77
2022/12/13 09:39:31;;;;;;;27.30;11.63;;;-6.30;99.90;;;;;;4199431;28;20207;-77
2022/12/13 09:41:37;;;;;;;34.05;12.95;;;-6.30;99.90;;;;;;4196101;28;20266;-78
2022/12/13 09:43:41;;;;;;;32.78;12.38;;;-6.30;99.90;;;;;;4193102;28;20249;-77
2022/12/13 09:45:46;;;;;;;33.53;11.93;;;-6.20;99.90;;;;;;4188954;28;20235;-77
2022/12/13 09:47:52;;;;;;;36.55;13.10;;;-6.20;99.90;;;;;;4190492;28;20206;-77
2022/12/13 09:49:54;;;;;;;33.95;13.85;;;-6.10;99.90;;;;;;4187059;28;20243;-78
2022/12/13 09:52:00;;;;;;;33.85;12.88;;;-6.10;99.90;;;;;;4191743;28;20202;-77
2022/12/13 09:54:02;;;;;;;29.38;11.23;;;-6.00;99.90;;;;;;4185423;28;20317;-77
2022/12/13 09:56:04;;;;;;;35.45;12.40;;;-6.00;99.90;;;;;;4193381;28;20218;-78
2022/12/13 09:58:13;;;;;;;32.47;12.10;;;-6.00;99.90;;;;;;4185402;28;20209;-78
2022/12/13 10:00:18;;;;;;;35.42;12.20;;;-5.90;99.90;;;;;;4209434;28;20197;-77
2022/12/13 10:02:38;;;;;;;38.45;12.70;;;-5.90;99.90;;;;;;4192579;28;20205;-77
2022/12/13 10:50:38;;;;;;;;;;;;;;;;;;;;;
2022/12/13 11:08:25;;;;;;;29.58;12.27;;;-4.30;99.90;;;;;;4171490;28;20229;-78
2022/12/13 11:10:29;;;;;;;33.33;12.02;;;-3.10;99.90;;;;;;4165751;28;20202;-77
2022/12/13 11:12:31;;;;;;;34.35;12.32;;;-4.20;99.90;;;;;;4170594;28;20198;-78
2022/12/13 11:14:35;;;;;;;31.90;12.98;;;-4.10;99.90;;;;;;4172548;28;20239;-77
2022/12/13 11:16:41;;;;;;;30.13;11.80;;;-4.00;99.90;;;;;;4169402;28;20223;-77
2022/12/13 11:18:43;;;;;;;33.03;12.43;;;-4.00;99.90;;;;;;4176855;28;20253;-78
2022/12/13 11:20:53;;;;;;;37.33;12.70;;;-3.90;99.90;;;;;;4172909;28;20228;-77
2022/12/13 11:23:04;;;;;;;30.33;12.15;;;-3.80;99.90;;;;;;4186627;28;20210;-79
2022/12/13 11:25:18;;;;;;;31.98;11.23;;;-3.20;99.90;;;;;;4171533;28;20209;-77
2022/12/13 11:27:44;;;;;;;32.38;12.30;;;-3.60;99.90;;;;;;4174366;28;20284;-77
2022/12/13 11:29:59;;;;;;;33.08;12.57;;;-3.50;99.90;;;;;;4169718;28;20218;-77
2022/12/13 11:32:10;;;;;;;31.48;12.50;;;-3.40;99.90;;;;;;4169695;28;20265;-79
2022/12/13 11:34:25;;;;;;;34.28;12.25;;;-3.30;99.90;;;;;;4169771;28;20218;-78
2022/12/13 11:36:34;;;;;;;32.38;12.65;;;-3.20;99.90;;;;;;4171442;28;20225;-79
2022/12/13 11:38:56;;;;;;;28.33;12.40;;;-3.10;99.90;;;;;;4176689;28;20260;-78
2022/12/13 11:41:10;;;;;;;33.10;12.10;;;-2.90;99.90;;;;;;4169319;28;20752;-78
2022/12/13 11:43:20;;;;;;;29.85;12.63;;;-2.80;99.90;;;;;;4184638;28;20207;-78
2022/12/13 11:45:26;;;;;;;30.65;11.98;;;-2.40;99.90;;;;;;4175000;28;20292;-78
2022/12/13 11:47:35;;;;;;;33.25;12.40;;;-2.60;99.90;;;;;;4171965;28;20684;-78
2022/12/13 11:49:40;;;;;;;26.30;11.55;;;-1.80;99.90;;;;;;4172012;28;20209;-77
2022/12/13 11:51:48;;;;;;;32.13;11.73;;;-2.30;99.90;;;;;;4174177;28;20214;-78
2022/12/13 11:53:56;;;;;;;31.60;12.43;;;-2.10;99.90;;;;;;4167992;28;20218;-78
2022/12/13 11:56:07;;;;;;;30.10;11.60;;;-2.00;99.90;;;;;;4169955;28;20313;-77
2022/12/13 11:58:14;;;;;;;29.63;12.00;;;-1.80;99.90;;;;;;4173654;28;20850;-78
2022/12/13 12:00:31;;;;;;;33.90;12.77;;;-1.80;99.90;;;;;;4169471;28;20203;-77
2022/12/13 12:02:35;;;;;;;29.93;11.80;;;-1.60;99.90;;;;;;4172846;28;20871;-78
2022/12/13 12:04:44;;;;;;;33.43;11.97;;;-1.50;99.90;;;;;;4169953;28;20918;-77
2022/12/13 12:06:51;;;;;;;24.90;10.87;;;-1.40;99.90;;;;;;4175721;28;20485;-78
2022/12/13 12:08:57;;;;;;;25.90;11.10;;;-1.30;99.90;;;;;;4170187;28;20834;-77